sensor_id;sensor_type;location;lat;lon;timestamp;temperature;humidity
4962;DHT22;2496;52.468;13.342;2023-02-25T00:00:44;4.50;99.90
4962;DHT22;2496;52.468;13.342;2023-02-25T00:03:12;4.40;99.90
4962;DHT22;2496;52.468;13.342;2023-02-25T00:05:41;4.50;99.90
4962;DHT22;2496;52.468;13.342;2023-02-25T00:08:08;4.40;99.90
4962;DHT22;2496;52.468;13.342;2023-02-25T00:10:36;4.40;99.90
4962;DHT22;2496;52.468;13.342;2023-02-25T00:13:03;4.40;99.90
4962;DHT22;2496;52.468;13.342;2023-02-25T00:15:30;4.40;99.90
4962;DHT22;2496;52.468;13.342;2023-02-25T00:17:59;4.40;99.90
4962;DHT22;2496;52.468;13.342;2023-02-25T00:20:26;4.30;99.90
4962;DHT22;2496;52.468;13.342;2023-02-25T00:22:53;4.40;99.90
4962;DHT22;2496;52.468;13.342;2023-02-25T00:25:21;4.40;99.90
4962;DHT22;2496;52.468;13.342;2023-02-25T00:27:48;4.40;99.90
4962;DHT22;2496;52.468;13.342;2023-02-25T00:30:15;4.40;99.90
4962;DHT22;2496;52.468;13.342;2023-02-25T00:32:43;4.30;99.90
4962;DHT22;2496;52.468;13.342;2023-02-25T00:35:11;4.30;99.90
4962;DHT22;2496;52.468;13.342;2023-02-25T00:37:39;4.30;99.90
4962;DHT22;2496;52.468;13.342;2023-02-25T00:40:07;4.00;99.90
4962;DHT22;2496;52.468;13.342;2023-02-25T00:42:39;3.80;99.90
4962;DHT22;2496;52.468;13.342;2023-02-25T00:45:07;3.70;99.90
4962;DHT22;2496;52.468;13.342;2023-02-25T00:47:35;3.60;99.90
4962;DHT22;2496;52.468;13.342;2023-02-25T00:50:04;3.50;99.90
4962;DHT22;2496;52.468;13.342;2023-02-25T00:52:36;3.40;99.90
4962;DHT22;2496;52.468;13.342;2023-02-25T00:55:04;3.40;99.90
4962;DHT22;2496;52.468;13.342;2023-02-25T00:57:32;3.50;99.90
4962;DHT22;2496;52.468;13.342;2023-02-25T00:59:58;3.50;99.90
4962;DHT22;2496;52.468;13.342;2023-02-25T01:02:26;3.50;99.90
4962;DHT22;2496;52.468;13.342;2023-02-25T01:04:53;3.50;99.90
4962;DHT22;2496;52.468;13.342;2023-02-25T01:07:20;3.50;99.90
4962;DHT22;2496;52.468;13.342;2023-02-25T01:09:48;3.50;99.90
4962;DHT22;2496;52.468;13.342;2023-02-25T01:12:16;3.50;99.90
4962;DHT22;2496;52.468;13.342;2023-02-25T01:14:43;3.60;99.90
4962;DHT22;2496;52.468;13.342;2023-02-25T01:17:10;3.60;99.90
4962;DHT22;2496;52.468;13.342;2023-02-25T01:19:38;3.60;99.90
4962;DHT22;2496;52.468;13.342;2023-02-25T01:22:05;3.60;99.90
4962;DHT22;2496;52.468;13.342;2023-02-25T01:24:33;3.60;99.90
4962;DHT22;2496;52.468;13.342;2023-02-25T01:27:02;3.70;99.90
4962;DHT22;2496;52.468;13.342;2023-02-25T01:29:32;3.70;99.90
4962;DHT22;2496;52.468;13.342;2023-02-25T01:32:01;3.80;99.90
4962;DHT22;2496;52.468;13.342;2023-02-25T01:34:30;3.80;99.90
4962;DHT22;2496;52.468;13.342;2023-02-25T01:36:58;3.90;99.90
4962;DHT22;2496;52.468;13.342;2023-02-25T01:39:26;3.80;99.90
4962;DHT22;2496;52.468;13.342;2023-02-25T01:41:54;3.80;99.90
4962;DHT22;2496;52.468;13.342;2023-02-25T01:44:27;3.80;99.90
4962;DHT22;2496;52.468;13.342;2023-02-25T01:46:55;3.90;99.90
4962;DHT22;2496;52.468;13.342;2023-02-25T01:49:26;3.90;99.90
4962;DHT22;2496;52.468;13.342;2023-02-25T01:51:58;3.90;99.90
4962;DHT22;2496;52.468;13.342;2023-02-25T01:54:27;3.90;99.90
4962;DHT22;2496;52.468;13.342;2023-02-25T01:56:55;3.90;99.90
4962;DHT22;2496;52.468;13.342;2023-02-25T01:59:27;3.90;99.90
4962;DHT22;2496;52.468;13.342;2023-02-25T02:01:55;3.90;99.90
4962;DHT22;2496;52.468;13.342;2023-02-25T02:04:23;3.90;99.90
4962;DHT22;2496;52.468;13.342;2023-02-25T02:06:51;3.90;99.90
4962;DHT22;2496;52.468;13.342;2023-02-25T02:09:20;3.90;99.90
4962;DHT22;2496;52.468;13.342;2023-02-25T02:11:48;3.90;99.90
4962;DHT22;2496;52.468;13.342;2023-02-25T02:14:18;3.90;99.90
4962;DHT22;2496;52.468;13.342;2023-02-25T02:17:03;3.90;99.90
4962;DHT22;2496;52.468;13.342;2023-02-25T02:19:40;3.80;99.90
4962;DHT22;2496;52.468;13.342;2023-02-25T02:22:13;3.90;99.90
4962;DHT22;2496;52.468;13.342;2023-02-25T02:25:20;3.90;99.90
4962;DHT22;2496;52.468;13.342;2023-02-25T02:31:32;3.90;99.90
4962;DHT22;2496;52.468;13.342;2023-02-25T02:34:11;3.90;99.90
4962;DHT22;2496;52.468;13.342;2023-02-25T02:36:50;3.90;99.90
4962;DHT22;2496;52.468;13.342;2023-02-25T02:39:25;3.90;99.90
4962;DHT22;2496;52.468;13.342;2023-02-25T02:41:58;3.90;99.90
4962;DHT22;2496;52.468;13.342;2023-02-25T02:44:29;3.90;99.90
4962;DHT22;2496;52.468;13.342;2023-02-25T02:47:00;3.90;99.90
4962;DHT22;2496;52.468;13.342;2023-02-25T02:49:35;3.90;99.90
4962;DHT22;2496;52.468;13.342;2023-02-25T02:52:05;3.90;99.90
4962;DHT22;2496;52.468;13.342;2023-02-25T02:54:35;3.90;99.90
4962;DHT22;2496;52.468;13.342;2023-02-25T02:57:04;3.90;99.90
4962;DHT22;2496;52.468;13.342;2023-02-25T02:59:37;3.90;99.90
4962;DHT22;2496;52.468;13.342;2023-02-25T03:02:13;3.90;99.90
4962;DHT22;2496;52.468;13.342;2023-02-25T03:04:46;3.90;99.90
4962;DHT22;2496;52.468;13.342;2023-02-25T03:07:15;3.90;99.90
4962;DHT22;2496;52.468;13.342;2023-02-25T03:09:47;3.90;99.90
4962;DHT22;2496;52.468;13.342;2023-02-25T03:12:15;3.90;99.90
4962;DHT22;2496;52.468;13.342;2023-02-25T03:14:43;3.80;99.90
4962;DHT22;2496;52.468;13.342;2023-02-25T03:17:14;3.80;99.90
4962;DHT22;2496;52.468;13.342;2023-02-25T03:19:46;3.80;99.90
4962;DHT22;2496;52.468;13.342;2023-02-25T03:22:15;3.80;99.90
4962;DHT22;2496;52.468;13.342;2023-02-25T03:24:47;3.80;99.90
4962;DHT22;2496;52.468;13.342;2023-02-25T03:27:22;3.70;99.90
4962;DHT22;2496;52.468;13.342;2023-02-25T03:29:51;3.80;99.90
4962;DHT22;2496;52.468;13.342;2023-02-25T03:32:21;3.80;99.90
4962;DHT22;2496;52.468;13.342;2023-02-25T03:34:50;3.80;99.90
4962;DHT22;2496;52.468;13.342;2023-02-25T03:37:26;3.70;99.90
4962;DHT22;2496;52.468;13.342;2023-02-25T03:39:57;3.70;99.90
4962;DHT22;2496;52.468;13.342;2023-02-25T03:42:29;3.70;99.90
4962;DHT22;2496;52.468;13.342;2023-02-25T03:45:01;3.70;99.90
4962;DHT22;2496;52.468;13.342;2023-02-25T03:47:33;3.70;99.90
4962;DHT22;2496;52.468;13.342;2023-02-25T03:50:05;3.70;99.90
4962;DHT22;2496;52.468;13.342;2023-02-25T03:52:34;3.70;99.90
4962;DHT22;2496;52.468;13.342;2023-02-25T03:55:02;3.70;99.90
4962;DHT22;2496;52.468;13.342;2023-02-25T03:57:35;3.60;99.90
4962;DHT22;2496;52.468;13.342;2023-02-25T04:00:04;3.60;99.90
4962;DHT22;2496;52.468;13.342;2023-02-25T04:02:42;3.60;99.90
4962;DHT22;2496;52.468;13.342;2023-02-25T04:05:10;3.60;99.90
4962;DHT22;2496;52.468;13.342;2023-02-25T04:07:37;3.60;99.90
4962;DHT22;2496;52.468;13.342;2023-02-25T04:10:06;3.50;99.90
4962;DHT22;2496;52.468;13.342;2023-02-25T04:12:33;3.50;99.90
4962;DHT22;2496;52.468;13.342;2023-02-25T04:15:00;3.50;99.90
4962;DHT22;2496;52.468;13.342;2023-02-25T04:17:27;3.50;99.90
4962;DHT22;2496;52.468;13.342;2023-02-25T04:19:55;3.60;99.90
4962;DHT22;2496;52.468;13.342;2023-02-25T04:22:23;3.60;99.90
4962;DHT22;2496;52.468;13.342;2023-02-25T04:24:50;3.60;99.90
4962;DHT22;2496;52.468;13.342;2023-02-25T04:27:17;3.60;99.90
4962;DHT22;2496;52.468;13.342;2023-02-25T04:29:44;3.60;99.90
4962;DHT22;2496;52.468;13.342;2023-02-25T04:32:11;3.60;99.90
4962;DHT22;2496;52.468;13.342;2023-02-25T04:34:38;3.60;99.90
4962;DHT22;2496;52.468;13.342;2023-02-25T04:37:06;3.50;99.90
4962;DHT22;2496;52.468;13.342;2023-02-25T04:39:34;3.50;99.90
4962;DHT22;2496;52.468;13.342;2023-02-25T04:42:01;3.50;99.90
4962;DHT22;2496;52.468;13.342;2023-02-25T04:44:28;3.50;99.90
4962;DHT22;2496;52.468;13.342;2023-02-25T04:46:55;3.40;99.90
4962;DHT22;2496;52.468;13.342;2023-02-25T04:49:22;3.40;99.90
4962;DHT22;2496;52.468;13.342;2023-02-25T04:51:49;3.40;99.90
4962;DHT22;2496;52.468;13.342;2023-02-25T04:54:19;3.40;99.90
4962;DHT22;2496;52.468;13.342;2023-02-25T04:56:46;3.50;99.90
4962;DHT22;2496;52.468;13.342;2023-02-25T04:59:13;3.50;99.90
4962;DHT22;2496;52.468;13.342;2023-02-25T05:01:41;3.50;99.90
4962;DHT22;2496;52.468;13.342;2023-02-25T05:04:08;3.50;99.90
4962;DHT22;2496;52.468;13.342;2023-02-25T05:06:35;3.40;99.90
4962;DHT22;2496;52.468;13.342;2023-02-25T05:09:03;3.40;99.90
4962;DHT22;2496;52.468;13.342;2023-02-25T05:11:32;3.30;99.90
4962;DHT22;2496;52.468;13.342;2023-02-25T05:13:59;3.30;99.90
4962;DHT22;2496;52.468;13.342;2023-02-25T05:16:27;3.30;99.90
4962;DHT22;2496;52.468;13.342;2023-02-25T05:18:54;3.20;99.90
4962;DHT22;2496;52.468;13.342;2023-02-25T05:21:23;3.20;99.90
4962;DHT22;2496;52.468;13.342;2023-02-25T05:23:51;3.20;99.90
4962;DHT22;2496;52.468;13.342;2023-02-25T05:26:21;3.20;99.90
4962;DHT22;2496;52.468;13.342;2023-02-25T05:31:16;3.20;99.90
4962;DHT22;2496;52.468;13.342;2023-02-25T05:33:44;3.20;99.90
4962;DHT22;2496;52.468;13.342;2023-02-25T05:36:12;3.20;99.90
4962;DHT22;2496;52.468;13.342;2023-02-25T05:38:40;3.20;99.90
4962;DHT22;2496;52.468;13.342;2023-02-25T05:41:09;3.10;99.90
4962;DHT22;2496;52.468;13.342;2023-02-25T05:43:37;3.10;99.90
4962;DHT22;2496;52.468;13.342;2023-02-25T05:46:05;3.10;99.90
4962;DHT22;2496;52.468;13.342;2023-02-25T05:48:38;3.00;99.90
4962;DHT22;2496;52.468;13.342;2023-02-25T05:51:06;3.00;99.90
4962;DHT22;2496;52.468;13.342;2023-02-25T05:53:34;3.00;99.90
4962;DHT22;2496;52.468;13.342;2023-02-25T05:56:05;3.00;99.90
4962;DHT22;2496;52.468;13.342;2023-02-25T05:58:33;3.00;99.90
4962;DHT22;2496;52.468;13.342;2023-02-25T06:01:05;3.00;99.90
4962;DHT22;2496;52.468;13.342;2023-02-25T06:03:36;3.00;99.90
4962;DHT22;2496;52.468;13.342;2023-02-25T06:06:04;3.00;99.90
4962;DHT22;2496;52.468;13.342;2023-02-25T06:08:31;3.00;99.90
4962;DHT22;2496;52.468;13.342;2023-02-25T06:10:58;3.00;99.90
4962;DHT22;2496;52.468;13.342;2023-02-25T06:13:26;3.10;99.90
4962;DHT22;2496;52.468;13.342;2023-02-25T06:15:53;3.10;99.90
4962;DHT22;2496;52.468;13.342;2023-02-25T06:18:21;3.10;99.90
4962;DHT22;2496;52.468;13.342;2023-02-25T06:20:49;3.00;99.90
4962;DHT22;2496;52.468;13.342;2023-02-25T06:23:16;3.00;99.90
4962;DHT22;2496;52.468;13.342;2023-02-25T06:25:43;2.90;99.90
4962;DHT22;2496;52.468;13.342;2023-02-25T06:28:10;2.90;99.90
4962;DHT22;2496;52.468;13.342;2023-02-25T06:30:40;2.80;99.90
4962;DHT22;2496;52.468;13.342;2023-02-25T06:33:11;2.80;99.90
4962;DHT22;2496;52.468;13.342;2023-02-25T06:35:38;2.80;99.90
4962;DHT22;2496;52.468;13.342;2023-02-25T06:38:07;2.90;99.90
4962;DHT22;2496;52.468;13.342;2023-02-25T06:40:34;2.90;99.90
4962;DHT22;2496;52.468;13.342;2023-02-25T06:43:01;2.80;99.90
4962;DHT22;2496;52.468;13.342;2023-02-25T06:45:28;2.80;99.90
4962;DHT22;2496;52.468;13.342;2023-02-25T06:47:57;2.70;99.90
4962;DHT22;2496;52.468;13.342;2023-02-25T06:50:24;2.70;99.90
4962;DHT22;2496;52.468;13.342;2023-02-25T06:52:51;2.60;99.90
4962;DHT22;2496;52.468;13.342;2023-02-25T06:55:20;2.60;99.90
4962;DHT22;2496;52.468;13.342;2023-02-25T06:57:47;2.50;99.90
4962;DHT22;2496;52.468;13.342;2023-02-25T07:00:15;2.50;99.90
4962;DHT22;2496;52.468;13.342;2023-02-25T07:02:42;2.60;99.90
4962;DHT22;2496;52.468;13.342;2023-02-25T07:05:09;2.60;99.90
4962;DHT22;2496;52.468;13.342;2023-02-25T07:07:36;2.60;99.90
4962;DHT22;2496;52.468;13.342;2023-02-25T07:10:03;2.60;99.90
4962;DHT22;2496;52.468;13.342;2023-02-25T07:12:32;2.60;99.90
4962;DHT22;2496;52.468;13.342;2023-02-25T07:14:59;2.60;99.90
4962;DHT22;2496;52.468;13.342;2023-02-25T07:17:26;2.70;99.90
4962;DHT22;2496;52.468;13.342;2023-02-25T07:19:53;2.70;99.90
4962;DHT22;2496;52.468;13.342;2023-02-25T07:22:21;2.70;99.90
4962;DHT22;2496;52.468;13.342;2023-02-25T07:24:48;2.70;99.90
4962;DHT22;2496;52.468;13.342;2023-02-25T07:27:15;2.70;99.90
4962;DHT22;2496;52.468;13.342;2023-02-25T07:29:44;2.70;99.90
4962;DHT22;2496;52.468;13.342;2023-02-25T07:32:11;2.70;99.90
4962;DHT22;2496;52.468;13.342;2023-02-25T07:34:38;2.70;99.90
4962;DHT22;2496;52.468;13.342;2023-02-25T07:37:05;2.70;99.90
4962;DHT22;2496;52.468;13.342;2023-02-25T07:39:32;2.70;99.90
4962;DHT22;2496;52.468;13.342;2023-02-25T07:41:59;2.70;99.90
4962;DHT22;2496;52.468;13.342;2023-02-25T07:44:26;2.70;99.90
4962;DHT22;2496;52.468;13.342;2023-02-25T07:46:54;2.70;99.90
4962;DHT22;2496;52.468;13.342;2023-02-25T07:49:21;2.80;99.90
4962;DHT22;2496;52.468;13.342;2023-02-25T07:51:48;2.80;99.90
4962;DHT22;2496;52.468;13.342;2023-02-25T07:54:15;2.80;99.90
4962;DHT22;2496;52.468;13.342;2023-02-25T07:56:45;2.70;99.90
4962;DHT22;2496;52.468;13.342;2023-02-25T07:59:16;2.80;99.90
4962;DHT22;2496;52.468;13.342;2023-02-25T08:01:43;2.70;99.90
4962;DHT22;2496;52.468;13.342;2023-02-25T08:04:11;2.70;99.90
4962;DHT22;2496;52.468;13.342;2023-02-25T08:06:39;2.70;99.90
4962;DHT22;2496;52.468;13.342;2023-02-25T08:09:08;2.70;99.90
4962;DHT22;2496;52.468;13.342;2023-02-25T08:11:37;2.70;99.90
4962;DHT22;2496;52.468;13.342;2023-02-25T08:14:04;2.60;99.90
4962;DHT22;2496;52.468;13.342;2023-02-25T08:16:32;2.60;99.90
4962;DHT22;2496;52.468;13.342;2023-02-25T08:18:59;2.70;99.90
4962;DHT22;2496;52.468;13.342;2023-02-25T08:21:27;2.70;99.90
4962;DHT22;2496;52.468;13.342;2023-02-25T08:23:55;2.70;99.90
4962;DHT22;2496;52.468;13.342;2023-02-25T08:26:23;2.80;99.90
4962;DHT22;2496;52.468;13.342;2023-02-25T08:28:52;2.80;99.90
4962;DHT22;2496;52.468;13.342;2023-02-25T08:31:20;2.80;99.90
4962;DHT22;2496;52.468;13.342;2023-02-25T08:33:48;2.80;99.90
4962;DHT22;2496;52.468;13.342;2023-02-25T08:36:19;2.70;99.90
4962;DHT22;2496;52.468;13.342;2023-02-25T08:38:48;2.60;99.90
4962;DHT22;2496;52.468;13.342;2023-02-25T08:41:16;2.60;99.90
4962;DHT22;2496;52.468;13.342;2023-02-25T08:43:43;2.50;99.90
4962;DHT22;2496;52.468;13.342;2023-02-25T08:46:10;2.60;99.90
4962;DHT22;2496;52.468;13.342;2023-02-25T08:48:37;2.60;99.90
4962;DHT22;2496;52.468;13.342;2023-02-25T08:51:07;2.70;99.90
4962;DHT22;2496;52.468;13.342;2023-02-25T08:53:35;2.70;99.90
4962;DHT22;2496;52.468;13.342;2023-02-25T08:56:05;2.60;99.90
4962;DHT22;2496;52.468;13.342;2023-02-25T08:58:32;2.70;99.90
4962;DHT22;2496;52.468;13.342;2023-02-25T09:00:59;2.60;99.90
4962;DHT22;2496;52.468;13.342;2023-02-25T09:03:26;2.60;99.90
4962;DHT22;2496;52.468;13.342;2023-02-25T09:05:54;2.60;99.90
4962;DHT22;2496;52.468;13.342;2023-02-25T09:08:22;2.60;99.90
4962;DHT22;2496;52.468;13.342;2023-02-25T09:10:49;2.60;99.90
4962;DHT22;2496;52.468;13.342;2023-02-25T09:13:17;2.60;99.90
4962;DHT22;2496;52.468;13.342;2023-02-25T09:15:44;2.60;99.90
4962;DHT22;2496;52.468;13.342;2023-02-25T09:18:13;2.60;99.90
4962;DHT22;2496;52.468;13.342;2023-02-25T09:20:40;2.60;99.90
4962;DHT22;2496;52.468;13.342;2023-02-25T09:23:07;2.60;99.90
4962;DHT22;2496;52.468;13.342;2023-02-25T09:25:37;2.60;99.90
4962;DHT22;2496;52.468;13.342;2023-02-25T09:28:04;2.60;99.90
4962;DHT22;2496;52.468;13.342;2023-02-25T09:30:34;2.70;99.90
4962;DHT22;2496;52.468;13.342;2023-02-25T09:33:01;2.70;99.90
4962;DHT22;2496;52.468;13.342;2023-02-25T09:35:28;2.70;99.90
4962;DHT22;2496;52.468;13.342;2023-02-25T09:37:55;2.80;99.90
4962;DHT22;2496;52.468;13.342;2023-02-25T09:40:22;2.80;99.90
4962;DHT22;2496;52.468;13.342;2023-02-25T09:43:02;2.90;99.90
4962;DHT22;2496;52.468;13.342;2023-02-25T09:45:33;2.90;99.90
4962;DHT22;2496;52.468;13.342;2023-02-25T09:48:04;3.00;99.90
4962;DHT22;2496;52.468;13.342;2023-02-25T09:50:37;3.00;99.90
4962;DHT22;2496;52.468;13.342;2023-02-25T09:53:10;3.00;99.90
4962;DHT22;2496;52.468;13.342;2023-02-25T09:55:41;3.10;99.90
4962;DHT22;2496;52.468;13.342;2023-02-25T09:58:16;3.10;99.90
4962;DHT22;2496;52.468;13.342;2023-02-25T10:00:58;3.10;99.90
4962;DHT22;2496;52.468;13.342;2023-02-25T10:03:49;3.10;99.90
4962;DHT22;2496;52.468;13.342;2023-02-25T10:06:23;3.10;99.90
4962;DHT22;2496;52.468;13.342;2023-02-25T10:09:04;3.00;99.90
4962;DHT22;2496;52.468;13.342;2023-02-25T10:11:45;3.00;99.90
4962;DHT22;2496;52.468;13.342;2023-02-25T10:14:34;3.10;99.90
4962;DHT22;2496;52.468;13.342;2023-02-25T10:17:10;3.00;99.90
4962;DHT22;2496;52.468;13.342;2023-02-25T10:19:51;2.90;99.90
4962;DHT22;2496;52.468;13.342;2023-02-25T10:22:37;2.90;99.90
4962;DHT22;2496;52.468;13.342;2023-02-25T10:25:11;2.70;99.90
4962;DHT22;2496;52.468;13.342;2023-02-25T10:27:45;2.50;99.90
4962;DHT22;2496;52.468;13.342;2023-02-25T10:30:15;2.20;99.90
4962;DHT22;2496;52.468;13.342;2023-02-25T10:32:47;2.10;99.90
4962;DHT22;2496;52.468;13.342;2023-02-25T10:35:18;2.10;99.90
4962;DHT22;2496;52.468;13.342;2023-02-25T10:37:47;2.00;99.90
4962;DHT22;2496;52.468;13.342;2023-02-25T10:40:21;1.90;99.90
4962;DHT22;2496;52.468;13.342;2023-02-25T10:42:50;1.80;99.90
4962;DHT22;2496;52.468;13.342;2023-02-25T10:45:21;1.70;99.90
4962;DHT22;2496;52.468;13.342;2023-02-25T10:48:00;1.80;99.90
4962;DHT22;2496;52.468;13.342;2023-02-25T10:50:29;1.90;99.90
4962;DHT22;2496;52.468;13.342;2023-02-25T10:53:00;1.90;99.90
4962;DHT22;2496;52.468;13.342;2023-02-25T10:55:39;2.00;99.90
4962;DHT22;2496;52.468;13.342;2023-02-25T10:58:22;2.10;99.90
4962;DHT22;2496;52.468;13.342;2023-02-25T11:00:55;2.10;99.90
4962;DHT22;2496;52.468;13.342;2023-02-25T11:03:25;2.30;99.90
4962;DHT22;2496;52.468;13.342;2023-02-25T11:06:08;2.40;99.90
4962;DHT22;2496;52.468;13.342;2023-02-25T11:08:36;2.50;99.90
4962;DHT22;2496;52.468;13.342;2023-02-25T11:11:05;2.60;99.90
4962;DHT22;2496;52.468;13.342;2023-02-25T11:13:39;2.70;99.90
4962;DHT22;2496;52.468;13.342;2023-02-25T11:16:09;2.70;99.90
4962;DHT22;2496;52.468;13.342;2023-02-25T11:18:38;2.70;99.90
4962;DHT22;2496;52.468;13.342;2023-02-25T11:21:08;2.70;99.90
4962;DHT22;2496;52.468;13.342;2023-02-25T11:23:43;2.70;99.90
4962;DHT22;2496;52.468;13.342;2023-02-25T11:26:15;2.70;99.90
4962;DHT22;2496;52.468;13.342;2023-02-25T11:28:45;2.70;99.90
4962;DHT22;2496;52.468;13.342;2023-02-25T11:31:17;2.70;99.90
4962;DHT22;2496;52.468;13.342;2023-02-25T11:33:52;2.70;99.90
4962;DHT22;2496;52.468;13.342;2023-02-25T11:36:22;2.80;99.90
4962;DHT22;2496;52.468;13.342;2023-02-25T11:39:13;2.80;99.90
4962;DHT22;2496;52.468;13.342;2023-02-25T11:41:42;2.80;99.90
4962;DHT22;2496;52.468;13.342;2023-02-25T11:44:20;2.70;99.90
4962;DHT22;2496;52.468;13.342;2023-02-25T11:46:56;2.70;99.90
4962;DHT22;2496;52.468;13.342;2023-02-25T11:49:35;2.80;99.90
4962;DHT22;2496;52.468;13.342;2023-02-25T11:52:10;2.80;99.90
4962;DHT22;2496;52.468;13.342;2023-02-25T11:54:45;2.80;99.90
4962;DHT22;2496;52.468;13.342;2023-02-25T11:57:18;2.80;99.90
4962;DHT22;2496;52.468;13.342;2023-02-25T11:59:53;2.90;99.90
4962;DHT22;2496;52.468;13.342;2023-02-25T12:02:31;2.90;99.90
4962;DHT22;2496;52.468;13.342;2023-02-25T12:05:24;2.90;99.90
4962;DHT22;2496;52.468;13.342;2023-02-25T12:08:10;2.80;99.90
4962;DHT22;2496;52.468;13.342;2023-02-25T12:11:12;2.80;99.90
4962;DHT22;2496;52.468;13.342;2023-02-25T12:14:16;2.60;99.90
4962;DHT22;2496;52.468;13.342;2023-02-25T12:23:31;2.30;99.90
4962;DHT22;2496;52.468;13.342;2023-02-25T12:26:06;2.40;99.90
4962;DHT22;2496;52.468;13.342;2023-02-25T12:29:02;2.40;99.90
4962;DHT22;2496;52.468;13.342;2023-02-25T12:38:06;2.60;99.90
4962;DHT22;2496;52.468;13.342;2023-02-25T12:40:56;2.60;99.90
4962;DHT22;2496;52.468;13.342;2023-02-25T12:43:37;2.40;99.90
4962;DHT22;2496;52.468;13.342;2023-02-25T12:46:18;2.20;99.90
4962;DHT22;2496;52.468;13.342;2023-02-25T12:49:06;2.00;99.90
4962;DHT22;2496;52.468;13.342;2023-02-25T12:51:53;2.00;99.90
4962;DHT22;2496;52.468;13.342;2023-02-25T12:54:50;1.90;99.90
4962;DHT22;2496;52.468;13.342;2023-02-25T12:57:38;1.90;99.90
4962;DHT22;2496;52.468;13.342;2023-02-25T13:00:22;1.90;99.90
4962;DHT22;2496;52.468;13.342;2023-02-25T13:03:02;2.00;99.90
4962;DHT22;2496;52.468;13.342;2023-02-25T13:05:55;2.10;99.90
4962;DHT22;2496;52.468;13.342;2023-02-25T13:08:52;2.20;99.90
4962;DHT22;2496;52.468;13.342;2023-02-25T13:11:34;2.20;99.90
4962;DHT22;2496;52.468;13.342;2023-02-25T13:14:24;2.10;99.90
4962;DHT22;2496;52.468;13.342;2023-02-25T13:17:15;2.00;99.90
4962;DHT22;2496;52.468;13.342;2023-02-25T13:20:18;1.90;99.90
4962;DHT22;2496;52.468;13.342;2023-02-25T13:22:56;1.90;99.90
4962;DHT22;2496;52.468;13.342;2023-02-25T13:25:48;1.80;99.90
4962;DHT22;2496;52.468;13.342;2023-02-25T13:31:10;1.80;99.90
4962;DHT22;2496;52.468;13.342;2023-02-25T13:33:49;1.80;99.90
4962;DHT22;2496;52.468;13.342;2023-02-25T13:36:36;1.90;99.90
4962;DHT22;2496;52.468;13.342;2023-02-25T13:39:26;1.90;99.90
4962;DHT22;2496;52.468;13.342;2023-02-25T13:42:11;2.00;99.90
4962;DHT22;2496;52.468;13.342;2023-02-25T13:44:53;2.00;99.90
4962;DHT22;2496;52.468;13.342;2023-02-25T13:47:47;2.20;99.90
4962;DHT22;2496;52.468;13.342;2023-02-25T13:50:32;2.20;99.90
4962;DHT22;2496;52.468;13.342;2023-02-25T13:53:15;2.30;99.90
4962;DHT22;2496;52.468;13.342;2023-02-25T13:59:09;2.20;99.90
4962;DHT22;2496;52.468;13.342;2023-02-25T14:01:55;2.20;99.90
4962;DHT22;2496;52.468;13.342;2023-02-25T14:04:48;2.10;99.90
4962;DHT22;2496;52.468;13.342;2023-02-25T14:10:28;2.10;99.90
4962;DHT22;2496;52.468;13.342;2023-02-25T14:13:12;2.00;99.90
4962;DHT22;2496;52.468;13.342;2023-02-25T14:15:51;1.90;99.90
4962;DHT22;2496;52.468;13.342;2023-02-25T14:18:44;1.80;99.90
4962;DHT22;2496;52.468;13.342;2023-02-25T14:21:39;1.80;99.90
4962;DHT22;2496;52.468;13.342;2023-02-25T14:24:16;1.80;99.90
4962;DHT22;2496;52.468;13.342;2023-02-25T14:26:52;1.90;99.90
4962;DHT22;2496;52.468;13.342;2023-02-25T14:29:30;1.90;99.90
4962;DHT22;2496;52.468;13.342;2023-02-25T14:32:15;1.90;99.90
4962;DHT22;2496;52.468;13.342;2023-02-25T14:34:59;2.00;99.90
4962;DHT22;2496;52.468;13.342;2023-02-25T14:37:39;2.00;99.90
4962;DHT22;2496;52.468;13.342;2023-02-25T14:40:20;2.00;99.90
4962;DHT22;2496;52.468;13.342;2023-02-25T14:42:59;2.00;99.90
4962;DHT22;2496;52.468;13.342;2023-02-25T14:45:31;2.00;99.90
4962;DHT22;2496;52.468;13.342;2023-02-25T14:48:03;2.00;99.90
4962;DHT22;2496;52.468;13.342;2023-02-25T14:50:36;2.00;99.90
4962;DHT22;2496;52.468;13.342;2023-02-25T14:53:33;2.10;99.90
4962;DHT22;2496;52.468;13.342;2023-02-25T14:56:24;2.20;99.90
4962;DHT22;2496;52.468;13.342;2023-02-25T14:59:28;2.20;99.90
4962;DHT22;2496;52.468;13.342;2023-02-25T15:05:30;2.40;99.90
4962;DHT22;2496;52.468;13.342;2023-02-25T15:14:31;2.40;99.90
4962;DHT22;2496;52.468;13.342;2023-02-25T15:17:37;2.40;99.90
4962;DHT22;2496;52.468;13.342;2023-02-25T15:20:21;2.40;99.90
4962;DHT22;2496;52.468;13.342;2023-02-25T15:23:03;2.40;99.90
4962;DHT22;2496;52.468;13.342;2023-02-25T15:25:45;2.40;99.90
4962;DHT22;2496;52.468;13.342;2023-02-25T15:28:42;2.50;99.90
4962;DHT22;2496;52.468;13.342;2023-02-25T15:31:25;2.50;99.90
4962;DHT22;2496;52.468;13.342;2023-02-25T15:36:41;2.50;99.90
4962;DHT22;2496;52.468;13.342;2023-02-25T15:39:09;2.50;99.90
4962;DHT22;2496;52.468;13.342;2023-02-25T15:42:01;2.50;99.90
4962;DHT22;2496;52.468;13.342;2023-02-25T15:44:35;2.40;99.90
4962;DHT22;2496;52.468;13.342;2023-02-25T15:47:33;2.40;99.90
4962;DHT22;2496;52.468;13.342;2023-02-25T15:50:01;2.40;99.90
4962;DHT22;2496;52.468;13.342;2023-02-25T15:52:51;2.40;99.90
4962;DHT22;2496;52.468;13.342;2023-02-25T15:55:31;2.40;99.90
4962;DHT22;2496;52.468;13.342;2023-02-25T15:58:00;2.40;99.90
4962;DHT22;2496;52.468;13.342;2023-02-25T16:00:53;2.30;99.90
4962;DHT22;2496;52.468;13.342;2023-02-25T16:03:39;2.30;99.90
4962;DHT22;2496;52.468;13.342;2023-02-25T16:06:15;2.20;99.90
4962;DHT22;2496;52.468;13.342;2023-02-25T16:08:50;2.10;99.90
4962;DHT22;2496;52.468;13.342;2023-02-25T16:11:30;1.90;99.90
4962;DHT22;2496;52.468;13.342;2023-02-25T16:13:59;1.80;99.90
4962;DHT22;2496;52.468;13.342;2023-02-25T16:16:31;1.60;99.90
4962;DHT22;2496;52.468;13.342;2023-02-25T16:19:00;1.60;99.90
4962;DHT22;2496;52.468;13.342;2023-02-25T16:21:36;1.50;99.90
4962;DHT22;2496;52.468;13.342;2023-02-25T16:24:07;1.40;99.90
4962;DHT22;2496;52.468;13.342;2023-02-25T16:26:46;1.40;99.90
4962;DHT22;2496;52.468;13.342;2023-02-25T16:29:39;1.30;99.90
4962;DHT22;2496;52.468;13.342;2023-02-25T16:32:22;1.30;99.90
4962;DHT22;2496;52.468;13.342;2023-02-25T16:34:55;1.20;99.90
4962;DHT22;2496;52.468;13.342;2023-02-25T16:37:28;1.20;99.90
4962;DHT22;2496;52.468;13.342;2023-02-25T16:39:57;1.20;99.90
4962;DHT22;2496;52.468;13.342;2023-02-25T16:42:24;1.30;99.90
4962;DHT22;2496;52.468;13.342;2023-02-25T16:44:57;1.30;99.90
4962;DHT22;2496;52.468;13.342;2023-02-25T16:47:29;1.20;99.90
4962;DHT22;2496;52.468;13.342;2023-02-25T16:49:58;1.20;99.90
4962;DHT22;2496;52.468;13.342;2023-02-25T16:52:29;1.20;99.90
4962;DHT22;2496;52.468;13.342;2023-02-25T16:54:59;1.20;99.90
4962;DHT22;2496;52.468;13.342;2023-02-25T16:57:30;1.20;99.90
4962;DHT22;2496;52.468;13.342;2023-02-25T17:00:11;1.20;99.90
4962;DHT22;2496;52.468;13.342;2023-02-25T17:02:45;1.20;99.90
4962;DHT22;2496;52.468;13.342;2023-02-25T17:05:24;1.20;99.90
4962;DHT22;2496;52.468;13.342;2023-02-25T17:07:54;1.20;99.90
4962;DHT22;2496;52.468;13.342;2023-02-25T17:10:26;1.20;99.90
4962;DHT22;2496;52.468;13.342;2023-02-25T17:12:54;1.20;99.90
4962;DHT22;2496;52.468;13.342;2023-02-25T17:15:23;1.30;99.90
4962;DHT22;2496;52.468;13.342;2023-02-25T17:17:56;1.30;99.90
4962;DHT22;2496;52.468;13.342;2023-02-25T17:20:26;1.20;99.90